sensor_id;sensor_type;location;lat;lon;timestamp;temperature;humidity
26537;DHT22;14204;51.262;5.488;2022-07-24T00:01:29;21.10;99.90
26537;DHT22;14204;51.262;5.488;2022-07-24T00:03:54;21.00;99.90
26537;DHT22;14204;51.262;5.488;2022-07-24T00:06:20;21.10;99.90
26537;DHT22;14204;51.262;5.488;2022-07-24T00:08:46;21.00;99.90
26537;DHT22;14204;51.262;5.488;2022-07-24T00:11:11;21.10;99.90
26537;DHT22;14204;51.262;5.488;2022-07-24T00:13:38;21.00;99.90
26537;DHT22;14204;51.262;5.488;2022-07-24T00:16:06;21.00;99.90
26537;DHT22;14204;51.262;5.488;2022-07-24T00:18:32;21.00;99.90
26537;DHT22;14204;51.262;5.488;2022-07-24T00:20:58;21.00;99.90
26537;DHT22;14204;51.262;5.488;2022-07-24T00:23:24;20.90;99.90
26537;DHT22;14204;51.262;5.488;2022-07-24T00:25:51;20.90;99.90
26537;DHT22;14204;51.262;5.488;2022-07-24T00:28:17;20.90;99.90
26537;DHT22;14204;51.262;5.488;2022-07-24T00:30:42;20.90;99.90
26537;DHT22;14204;51.262;5.488;2022-07-24T00:33:09;20.90;99.90
26537;DHT22;14204;51.262;5.488;2022-07-24T00:35:35;20.90;99.90
26537;DHT22;14204;51.262;5.488;2022-07-24T00:38:01;20.90;99.90
26537;DHT22;14204;51.262;5.488;2022-07-24T00:40:27;20.80;99.90
26537;DHT22;14204;51.262;5.488;2022-07-24T00:42:53;20.80;99.90
26537;DHT22;14204;51.262;5.488;2022-07-24T00:45:19;20.80;99.90
26537;DHT22;14204;51.262;5.488;2022-07-24T00:47:45;20.80;99.90
26537;DHT22;14204;51.262;5.488;2022-07-24T00:50:11;20.80;99.90
26537;DHT22;14204;51.262;5.488;2022-07-24T00:52:37;20.80;99.90
26537;DHT22;14204;51.262;5.488;2022-07-24T00:55:04;20.80;99.90
26537;DHT22;14204;51.262;5.488;2022-07-24T00:57:30;20.70;99.90
26537;DHT22;14204;51.262;5.488;2022-07-24T00:59:57;20.70;99.90
26537;DHT22;14204;51.262;5.488;2022-07-24T01:02:23;20.70;99.90
26537;DHT22;14204;51.262;5.488;2022-07-24T01:04:49;20.60;99.90
26537;DHT22;14204;51.262;5.488;2022-07-24T01:07:15;20.70;99.90
26537;DHT22;14204;51.262;5.488;2022-07-24T01:09:41;20.60;99.90
26537;DHT22;14204;51.262;5.488;2022-07-24T01:12:07;20.60;99.90
26537;DHT22;14204;51.262;5.488;2022-07-24T01:14:34;20.60;99.90
26537;DHT22;14204;51.262;5.488;2022-07-24T01:17:00;20.60;99.90
26537;DHT22;14204;51.262;5.488;2022-07-24T01:19:25;20.60;99.90
26537;DHT22;14204;51.262;5.488;2022-07-24T01:21:52;20.60;99.90
26537;DHT22;14204;51.262;5.488;2022-07-24T01:24:19;20.50;99.90
26537;DHT22;14204;51.262;5.488;2022-07-24T01:26:46;20.50;99.90
26537;DHT22;14204;51.262;5.488;2022-07-24T01:29:13;20.50;99.90
26537;DHT22;14204;51.262;5.488;2022-07-24T01:31:39;20.50;99.90
26537;DHT22;14204;51.262;5.488;2022-07-24T01:34:05;20.40;99.90
26537;DHT22;14204;51.262;5.488;2022-07-24T01:36:31;20.40;99.90
26537;DHT22;14204;51.262;5.488;2022-07-24T01:38:57;20.40;99.90
26537;DHT22;14204;51.262;5.488;2022-07-24T01:41:23;20.40;99.90
26537;DHT22;14204;51.262;5.488;2022-07-24T01:43:48;20.40;99.90
26537;DHT22;14204;51.262;5.488;2022-07-24T01:46:14;20.30;99.90
26537;DHT22;14204;51.262;5.488;2022-07-24T01:48:41;20.30;99.90
26537;DHT22;14204;51.262;5.488;2022-07-24T01:51:07;20.20;99.90
26537;DHT22;14204;51.262;5.488;2022-07-24T01:53:33;20.30;99.90
26537;DHT22;14204;51.262;5.488;2022-07-24T01:55:59;20.30;99.90
26537;DHT22;14204;51.262;5.488;2022-07-24T01:58:25;20.30;99.90
26537;DHT22;14204;51.262;5.488;2022-07-24T02:00:51;20.30;99.90
26537;DHT22;14204;51.262;5.488;2022-07-24T02:03:18;20.20;99.90
26537;DHT22;14204;51.262;5.488;2022-07-24T02:05:44;20.20;99.90
26537;DHT22;14204;51.262;5.488;2022-07-24T02:08:09;20.10;99.90
26537;DHT22;14204;51.262;5.488;2022-07-24T02:10:35;20.20;99.90
26537;DHT22;14204;51.262;5.488;2022-07-24T02:13:01;20.10;99.90
26537;DHT22;14204;51.262;5.488;2022-07-24T02:15:27;20.10;99.90
26537;DHT22;14204;51.262;5.488;2022-07-24T02:17:56;20.20;99.90
26537;DHT22;14204;51.262;5.488;2022-07-24T02:20:22;20.10;99.90
26537;DHT22;14204;51.262;5.488;2022-07-24T02:22:48;20.00;99.90
26537;DHT22;14204;51.262;5.488;2022-07-24T02:25:14;20.00;99.90
26537;DHT22;14204;51.262;5.488;2022-07-24T02:27:40;20.10;99.90
26537;DHT22;14204;51.262;5.488;2022-07-24T02:30:08;20.10;99.90
26537;DHT22;14204;51.262;5.488;2022-07-24T02:32:34;19.90;99.90
26537;DHT22;14204;51.262;5.488;2022-07-24T02:35:00;19.90;99.90
26537;DHT22;14204;51.262;5.488;2022-07-24T02:37:26;19.80;99.90
26537;DHT22;14204;51.262;5.488;2022-07-24T02:39:52;19.80;99.90
26537;DHT22;14204;51.262;5.488;2022-07-24T02:42:18;19.80;99.90
26537;DHT22;14204;51.262;5.488;2022-07-24T02:44:43;19.80;99.90
26537;DHT22;14204;51.262;5.488;2022-07-24T02:47:09;19.70;99.90
26537;DHT22;14204;51.262;5.488;2022-07-24T02:49:35;19.80;99.90
26537;DHT22;14204;51.262;5.488;2022-07-24T02:52:02;19.80;99.90
26537;DHT22;14204;51.262;5.488;2022-07-24T02:54:28;19.80;99.90
26537;DHT22;14204;51.262;5.488;2022-07-24T02:56:53;19.70;99.90
26537;DHT22;14204;51.262;5.488;2022-07-24T02:59:19;19.60;99.90
26537;DHT22;14204;51.262;5.488;2022-07-24T03:01:45;19.60;99.90
26537;DHT22;14204;51.262;5.488;2022-07-24T03:04:11;19.70;99.90
26537;DHT22;14204;51.262;5.488;2022-07-24T03:06:37;19.70;99.90
26537;DHT22;14204;51.262;5.488;2022-07-24T03:09:03;19.70;99.90
26537;DHT22;14204;51.262;5.488;2022-07-24T03:11:29;19.70;99.90
26537;DHT22;14204;51.262;5.488;2022-07-24T03:13:54;19.70;99.90
26537;DHT22;14204;51.262;5.488;2022-07-24T03:16:20;19.70;99.90
26537;DHT22;14204;51.262;5.488;2022-07-24T03:18:46;19.70;99.90
26537;DHT22;14204;51.262;5.488;2022-07-24T03:21:14;19.60;99.90
26537;DHT22;14204;51.262;5.488;2022-07-24T03:23:40;19.70;99.90
26537;DHT22;14204;51.262;5.488;2022-07-24T03:26:06;19.70;99.90
26537;DHT22;14204;51.262;5.488;2022-07-24T03:28:32;19.70;99.90
26537;DHT22;14204;51.262;5.488;2022-07-24T03:30:58;19.60;99.90
26537;DHT22;14204;51.262;5.488;2022-07-24T03:33:26;19.70;99.90
26537;DHT22;14204;51.262;5.488;2022-07-24T03:35:52;19.60;99.90
26537;DHT22;14204;51.262;5.488;2022-07-24T03:38:18;19.60;99.90
26537;DHT22;14204;51.262;5.488;2022-07-24T03:40:43;19.60;99.90
26537;DHT22;14204;51.262;5.488;2022-07-24T03:43:09;19.60;99.90
26537;DHT22;14204;51.262;5.488;2022-07-24T03:45:35;19.60;99.90
26537;DHT22;14204;51.262;5.488;2022-07-24T03:48:01;19.60;99.90
26537;DHT22;14204;51.262;5.488;2022-07-24T03:50:27;19.60;99.90
26537;DHT22;14204;51.262;5.488;2022-07-24T03:52:53;19.60;99.90
26537;DHT22;14204;51.262;5.488;2022-07-24T03:55:18;19.50;99.90
26537;DHT22;14204;51.262;5.488;2022-07-24T03:57:44;19.60;99.90
26537;DHT22;14204;51.262;5.488;2022-07-24T04:00:10;19.50;99.90
26537;DHT22;14204;51.262;5.488;2022-07-24T04:02:36;19.50;99.90
26537;DHT22;14204;51.262;5.488;2022-07-24T04:05:02;19.50;99.90
26537;DHT22;14204;51.262;5.488;2022-07-24T04:07:28;19.50;99.90
26537;DHT22;14204;51.262;5.488;2022-07-24T04:09:54;19.40;99.90
26537;DHT22;14204;51.262;5.488;2022-07-24T04:12:20;19.40;99.90
26537;DHT22;14204;51.262;5.488;2022-07-24T04:14:45;19.40;99.90
26537;DHT22;14204;51.262;5.488;2022-07-24T04:17:11;19.40;99.90
26537;DHT22;14204;51.262;5.488;2022-07-24T04:19:37;19.50;99.90
26537;DHT22;14204;51.262;5.488;2022-07-24T04:22:03;19.40;99.90
26537;DHT22;14204;51.262;5.488;2022-07-24T04:24:28;19.40;99.90
26537;DHT22;14204;51.262;5.488;2022-07-24T04:26:54;19.40;99.90
26537;DHT22;14204;51.262;5.488;2022-07-24T04:29:20;19.40;99.90
26537;DHT22;14204;51.262;5.488;2022-07-24T04:31:45;19.50;99.90
26537;DHT22;14204;51.262;5.488;2022-07-24T04:34:11;19.50;99.90
26537;DHT22;14204;51.262;5.488;2022-07-24T04:36:37;19.50;99.90
26537;DHT22;14204;51.262;5.488;2022-07-24T04:39:02;19.50;99.90
26537;DHT22;14204;51.262;5.488;2022-07-24T04:41:28;19.50;99.90
26537;DHT22;14204;51.262;5.488;2022-07-24T04:43:55;19.50;99.90
26537;DHT22;14204;51.262;5.488;2022-07-24T04:46:20;19.50;99.90
26537;DHT22;14204;51.262;5.488;2022-07-24T04:48:46;19.50;99.90
26537;DHT22;14204;51.262;5.488;2022-07-24T04:51:12;19.50;99.90
26537;DHT22;14204;51.262;5.488;2022-07-24T04:53:38;19.50;99.90
26537;DHT22;14204;51.262;5.488;2022-07-24T04:56:04;19.50;99.90
26537;DHT22;14204;51.262;5.488;2022-07-24T04:58:30;19.50;99.90
26537;DHT22;14204;51.262;5.488;2022-07-24T05:00:56;19.50;99.90
26537;DHT22;14204;51.262;5.488;2022-07-24T05:03:21;19.50;99.90
26537;DHT22;14204;51.262;5.488;2022-07-24T05:05:47;19.60;99.90
26537;DHT22;14204;51.262;5.488;2022-07-24T05:08:13;19.60;99.90
26537;DHT22;14204;51.262;5.488;2022-07-24T05:10:38;19.60;99.90
26537;DHT22;14204;51.262;5.488;2022-07-24T05:13:04;19.50;99.90
26537;DHT22;14204;51.262;5.488;2022-07-24T05:15:30;19.60;99.90
26537;DHT22;14204;51.262;5.488;2022-07-24T05:17:56;19.50;99.90
26537;DHT22;14204;51.262;5.488;2022-07-24T05:20:21;19.60;99.90
26537;DHT22;14204;51.262;5.488;2022-07-24T05:22:47;19.50;99.90
26537;DHT22;14204;51.262;5.488;2022-07-24T05:25:13;19.60;99.90
26537;DHT22;14204;51.262;5.488;2022-07-24T05:27:39;19.60;99.90
26537;DHT22;14204;51.262;5.488;2022-07-24T05:30:05;19.60;99.90
26537;DHT22;14204;51.262;5.488;2022-07-24T05:32:31;19.60;99.90
26537;DHT22;14204;51.262;5.488;2022-07-24T05:34:57;19.60;99.90
26537;DHT22;14204;51.262;5.488;2022-07-24T05:37:23;19.60;99.90
26537;DHT22;14204;51.262;5.488;2022-07-24T05:39:49;19.70;99.90
26537;DHT22;14204;51.262;5.488;2022-07-24T05:42:14;19.70;99.90
26537;DHT22;14204;51.262;5.488;2022-07-24T05:44:40;19.70;99.90
26537;DHT22;14204;51.262;5.488;2022-07-24T05:47:06;19.80;99.90
26537;DHT22;14204;51.262;5.488;2022-07-24T05:49:32;19.80;99.90
26537;DHT22;14204;51.262;5.488;2022-07-24T05:51:57;19.80;99.90
26537;DHT22;14204;51.262;5.488;2022-07-24T05:54:23;19.80;99.90
26537;DHT22;14204;51.262;5.488;2022-07-24T05:56:49;19.90;99.90
26537;DHT22;14204;51.262;5.488;2022-07-24T05:59:14;19.80;99.90
26537;DHT22;14204;51.262;5.488;2022-07-24T06:01:40;19.90;99.90
26537;DHT22;14204;51.262;5.488;2022-07-24T06:04:06;19.90;99.90
26537;DHT22;14204;51.262;5.488;2022-07-24T06:06:31;19.90;99.90
26537;DHT22;14204;51.262;5.488;2022-07-24T06:08:57;20.00;99.90
26537;DHT22;14204;51.262;5.488;2022-07-24T06:11:23;20.00;99.90
26537;DHT22;14204;51.262;5.488;2022-07-24T06:13:49;20.00;99.90
26537;DHT22;14204;51.262;5.488;2022-07-24T06:16:15;20.10;99.90
26537;DHT22;14204;51.262;5.488;2022-07-24T06:18:40;20.10;99.90
26537;DHT22;14204;51.262;5.488;2022-07-24T06:21:06;20.20;99.90
26537;DHT22;14204;51.262;5.488;2022-07-24T06:23:32;20.10;99.90
26537;DHT22;14204;51.262;5.488;2022-07-24T06:25:59;20.20;99.90
26537;DHT22;14204;51.262;5.488;2022-07-24T06:28:25;20.20;99.90
26537;DHT22;14204;51.262;5.488;2022-07-24T06:30:50;20.30;99.90
26537;DHT22;14204;51.262;5.488;2022-07-24T06:33:16;20.30;99.90
26537;DHT22;14204;51.262;5.488;2022-07-24T06:35:42;20.30;99.90
26537;DHT22;14204;51.262;5.488;2022-07-24T06:38:07;20.40;99.90
26537;DHT22;14204;51.262;5.488;2022-07-24T06:40:35;20.40;99.90
26537;DHT22;14204;51.262;5.488;2022-07-24T06:43:02;20.50;99.90
26537;DHT22;14204;51.262;5.488;2022-07-24T06:45:28;20.60;99.90
26537;DHT22;14204;51.262;5.488;2022-07-24T06:47:59;20.60;99.90
26537;DHT22;14204;51.262;5.488;2022-07-24T06:50:25;20.70;99.90
26537;DHT22;14204;51.262;5.488;2022-07-24T06:52:51;20.70;99.90
26537;DHT22;14204;51.262;5.488;2022-07-24T06:55:16;20.80;99.90
26537;DHT22;14204;51.262;5.488;2022-07-24T06:57:42;20.90;99.90
26537;DHT22;14204;51.262;5.488;2022-07-24T07:00:09;21.00;99.90
26537;DHT22;14204;51.262;5.488;2022-07-24T07:02:35;21.00;99.90
26537;DHT22;14204;51.262;5.488;2022-07-24T07:05:01;21.10;99.90
26537;DHT22;14204;51.262;5.488;2022-07-24T07:07:27;21.10;99.90
26537;DHT22;14204;51.262;5.488;2022-07-24T07:09:53;21.30;99.90
26537;DHT22;14204;51.262;5.488;2022-07-24T07:12:19;21.40;99.90
26537;DHT22;14204;51.262;5.488;2022-07-24T07:14:45;21.50;99.90
26537;DHT22;14204;51.262;5.488;2022-07-24T07:17:10;21.50;99.90
26537;DHT22;14204;51.262;5.488;2022-07-24T07:19:36;21.60;99.90
26537;DHT22;14204;51.262;5.488;2022-07-24T07:22:02;21.70;99.90
26537;DHT22;14204;51.262;5.488;2022-07-24T07:24:27;21.80;99.90
26537;DHT22;14204;51.262;5.488;2022-07-24T07:26:53;22.00;99.90
26537;DHT22;14204;51.262;5.488;2022-07-24T07:29:19;22.00;99.90
26537;DHT22;14204;51.262;5.488;2022-07-24T07:31:44;22.20;99.90
26537;DHT22;14204;51.262;5.488;2022-07-24T07:34:10;22.30;99.90
26537;DHT22;14204;51.262;5.488;2022-07-24T07:36:35;22.50;99.90
26537;DHT22;14204;51.262;5.488;2022-07-24T07:39:01;22.50;99.90
26537;DHT22;14204;51.262;5.488;2022-07-24T07:41:27;22.80;99.90
26537;DHT22;14204;51.262;5.488;2022-07-24T07:43:52;22.80;99.90
26537;DHT22;14204;51.262;5.488;2022-07-24T07:46:18;23.00;99.90
26537;DHT22;14204;51.262;5.488;2022-07-24T07:48:44;23.10;99.90
26537;DHT22;14204;51.262;5.488;2022-07-24T07:51:10;23.30;99.90
26537;DHT22;14204;51.262;5.488;2022-07-24T07:53:36;23.40;99.90
26537;DHT22;14204;51.262;5.488;2022-07-24T07:56:01;23.60;99.90
26537;DHT22;14204;51.262;5.488;2022-07-24T07:58:27;23.50;99.90
26537;DHT22;14204;51.262;5.488;2022-07-24T08:00:54;23.60;99.90
26537;DHT22;14204;51.262;5.488;2022-07-24T08:03:19;23.60;99.90
26537;DHT22;14204;51.262;5.488;2022-07-24T08:05:45;23.70;99.90
26537;DHT22;14204;51.262;5.488;2022-07-24T08:08:11;23.90;99.90
26537;DHT22;14204;51.262;5.488;2022-07-24T08:10:37;24.00;99.90
26537;DHT22;14204;51.262;5.488;2022-07-24T08:13:03;24.20;99.90
26537;DHT22;14204;51.262;5.488;2022-07-24T08:15:29;24.30;99.90
26537;DHT22;14204;51.262;5.488;2022-07-24T08:17:56;24.40;99.90
26537;DHT22;14204;51.262;5.488;2022-07-24T08:20:23;24.60;99.90
26537;DHT22;14204;51.262;5.488;2022-07-24T08:22:50;24.60;99.90
26537;DHT22;14204;51.262;5.488;2022-07-24T08:25:15;24.80;99.90
26537;DHT22;14204;51.262;5.488;2022-07-24T08:27:42;24.90;99.90
26537;DHT22;14204;51.262;5.488;2022-07-24T08:30:08;25.00;99.60
26537;DHT22;14204;51.262;5.488;2022-07-24T08:32:35;25.10;99.90
26537;DHT22;14204;51.262;5.488;2022-07-24T08:35:01;25.10;99.90
26537;DHT22;14204;51.262;5.488;2022-07-24T08:37:27;25.20;99.90
26537;DHT22;14204;51.262;5.488;2022-07-24T08:39:53;25.30;98.40
26537;DHT22;14204;51.262;5.488;2022-07-24T08:42:20;25.50;98.60
26537;DHT22;14204;51.262;5.488;2022-07-24T08:44:47;25.50;98.50
26537;DHT22;14204;51.262;5.488;2022-07-24T08:47:15;25.60;98.90
26537;DHT22;14204;51.262;5.488;2022-07-24T08:49:41;25.90;99.50
26537;DHT22;14204;51.262;5.488;2022-07-24T08:52:09;26.10;99.60
26537;DHT22;14204;51.262;5.488;2022-07-24T08:54:35;26.10;98.30
26537;DHT22;14204;51.262;5.488;2022-07-24T08:57:02;26.30;97.10
26537;DHT22;14204;51.262;5.488;2022-07-24T08:59:28;26.60;97.30
26537;DHT22;14204;51.262;5.488;2022-07-24T09:01:54;26.70;97.20
26537;DHT22;14204;51.262;5.488;2022-07-24T09:07:00;27.00;96.20
26537;DHT22;14204;51.262;5.488;2022-07-24T09:09:25;27.00;96.60
26537;DHT22;14204;51.262;5.488;2022-07-24T09:14:39;27.30;97.50
26537;DHT22;14204;51.262;5.488;2022-07-24T09:17:15;27.20;95.60
26537;DHT22;14204;51.262;5.488;2022-07-24T09:19:51;27.10;95.70
26537;DHT22;14204;51.262;5.488;2022-07-24T09:22:37;27.10;96.80
26537;DHT22;14204;51.262;5.488;2022-07-24T09:27:30;27.50;96.70
26537;DHT22;14204;51.262;5.488;2022-07-24T09:29:55;27.60;95.40
26537;DHT22;14204;51.262;5.488;2022-07-24T09:32:26;27.80;95.10
26537;DHT22;14204;51.262;5.488;2022-07-24T09:34:53;27.70;95.10
26537;DHT22;14204;51.262;5.488;2022-07-24T09:37:20;27.90;95.10
26537;DHT22;14204;51.262;5.488;2022-07-24T09:39:46;28.10;96.10
26537;DHT22;14204;51.262;5.488;2022-07-24T09:42:12;28.20;95.00
26537;DHT22;14204;51.262;5.488;2022-07-24T09:44:39;28.20;94.90
26537;DHT22;14204;51.262;5.488;2022-07-24T09:47:06;28.30;94.90
26537;DHT22;14204;51.262;5.488;2022-07-24T09:49:34;28.20;94.10
26537;DHT22;14204;51.262;5.488;2022-07-24T09:52:13;28.40;96.00
26537;DHT22;14204;51.262;5.488;2022-07-24T09:54:44;28.70;95.00
26537;DHT22;14204;51.262;5.488;2022-07-24T09:59:46;29.00;94.30
26537;DHT22;14204;51.262;5.488;2022-07-24T10:02:13;29.10;93.80
26537;DHT22;14204;51.262;5.488;2022-07-24T10:04:42;29.20;93.70
26537;DHT22;14204;51.262;5.488;2022-07-24T10:07:11;29.00;93.80
26537;DHT22;14204;51.262;5.488;2022-07-24T10:09:41;29.10;93.90
26537;DHT22;14204;51.262;5.488;2022-07-24T10:12:13;29.20;93.80
26537;DHT22;14204;51.262;5.488;2022-07-24T10:14:39;29.30;94.00
26537;DHT22;14204;51.262;5.488;2022-07-24T10:17:08;29.40;95.10
26537;DHT22;14204;51.262;5.488;2022-07-24T10:19:54;29.30;93.70
26537;DHT22;14204;51.262;5.488;2022-07-24T10:22:23;29.40;93.30
26537;DHT22;14204;51.262;5.488;2022-07-24T10:24:58;29.50;93.10
26537;DHT22;14204;51.262;5.488;2022-07-24T10:27:32;29.70;92.80
26537;DHT22;14204;51.262;5.488;2022-07-24T10:30:05;29.80;92.50
26537;DHT22;14204;51.262;5.488;2022-07-24T10:32:33;30.00;93.00
26537;DHT22;14204;51.262;5.488;2022-07-24T10:45:31;30.30;91.80
26537;DHT22;14204;51.262;5.488;2022-07-24T10:47:57;30.20;93.00
26537;DHT22;14204;51.262;5.488;2022-07-24T10:50:23;30.40;93.50
26537;DHT22;14204;51.262;5.488;2022-07-24T10:52:48;30.30;93.10
26537;DHT22;14204;51.262;5.488;2022-07-24T10:55:33;30.30;92.80
26537;DHT22;14204;51.262;5.488;2022-07-24T11:00:31;30.60;91.70
26537;DHT22;14204;51.262;5.488;2022-07-24T11:03:00;30.60;91.60
26537;DHT22;14204;51.262;5.488;2022-07-24T11:11:18;30.90;92.00
26537;DHT22;14204;51.262;5.488;2022-07-24T11:13:54;31.00;91.10
26537;DHT22;14204;51.262;5.488;2022-07-24T11:16:27;31.10;91.40
26537;DHT22;14204;51.262;5.488;2022-07-24T11:21:32;31.20;91.80
26537;DHT22;14204;51.262;5.488;2022-07-24T11:24:17;31.30;92.60
26537;DHT22;14204;51.262;5.488;2022-07-24T11:26:59;31.40;91.60
26537;DHT22;14204;51.262;5.488;2022-07-24T11:29:30;31.60;90.80
26537;DHT22;14204;51.262;5.488;2022-07-24T11:32:06;31.60;90.50
26537;DHT22;14204;51.262;5.488;2022-07-24T11:34:34;31.80;90.80
26537;DHT22;14204;51.262;5.488;2022-07-24T11:37:00;31.80;91.00
26537;DHT22;14204;51.262;5.488;2022-07-24T11:39:34;31.20;90.80
26537;DHT22;14204;51.262;5.488;2022-07-24T11:42:05;31.10;92.30
26537;DHT22;14204;51.262;5.488;2022-07-24T11:44:33;31.30;92.10
26537;DHT22;14204;51.262;5.488;2022-07-24T11:47:06;31.40;91.40
26537;DHT22;14204;51.262;5.488;2022-07-24T11:49:52;31.60;90.70
26537;DHT22;14204;51.262;5.488;2022-07-24T11:52:26;31.60;90.40
26537;DHT22;14204;51.262;5.488;2022-07-24T11:54:54;31.20;90.60
26537;DHT22;14204;51.262;5.488;2022-07-24T11:57:38;31.30;91.10
26537;DHT22;14204;51.262;5.488;2022-07-24T12:00:07;31.60;90.40
26537;DHT22;14204;51.262;5.488;2022-07-24T12:02:35;31.60;89.90
26537;DHT22;14204;51.262;5.488;2022-07-24T12:05:01;31.20;91.10
26537;DHT22;14204;51.262;5.488;2022-07-24T12:07:28;31.50;90.80
26537;DHT22;14204;51.262;5.488;2022-07-24T12:09:59;31.70;89.10
26537;DHT22;14204;51.262;5.488;2022-07-24T12:12:29;31.90;87.50
26537;DHT22;14204;51.262;5.488;2022-07-24T12:15:09;31.70;87.50
26537;DHT22;14204;51.262;5.488;2022-07-24T12:20:34;31.80;89.10
26537;DHT22;14204;51.262;5.488;2022-07-24T12:23:02;32.00;87.80
26537;DHT22;14204;51.262;5.488;2022-07-24T12:25:29;32.10;88.90
26537;DHT22;14204;51.262;5.488;2022-07-24T12:28:05;32.20;87.40
26537;DHT22;14204;51.262;5.488;2022-07-24T12:30:43;32.30;85.90
26537;DHT22;14204;51.262;5.488;2022-07-24T12:33:24;32.30;86.90
26537;DHT22;14204;51.262;5.488;2022-07-24T12:36:07;32.30;89.00
26537;DHT22;14204;51.262;5.488;2022-07-24T12:38:56;32.00;87.90
26537;DHT22;14204;51.262;5.488;2022-07-24T12:41:25;31.80;88.30
26537;DHT22;14204;51.262;5.488;2022-07-24T12:43:59;31.90;90.50
26537;DHT22;14204;51.262;5.488;2022-07-24T12:46:36;32.10;88.80
26537;DHT22;14204;51.262;5.488;2022-07-24T12:49:07;32.30;87.00
26537;DHT22;14204;51.262;5.488;2022-07-24T12:51:57;32.40;88.20
26537;DHT22;14204;51.262;5.488;2022-07-24T12:54:26;31.90;87.60
26537;DHT22;14204;51.262;5.488;2022-07-24T12:56:55;32.00;89.00
26537;DHT22;14204;51.262;5.488;2022-07-24T12:59:42;32.20;90.90
26537;DHT22;14204;51.262;5.488;2022-07-24T13:02:16;32.10;86.00
26537;DHT22;14204;51.262;5.488;2022-07-24T13:07:11;31.80;90.10
26537;DHT22;14204;51.262;5.488;2022-07-24T13:09:37;31.70;90.20
26537;DHT22;14204;51.262;5.488;2022-07-24T13:12:06;31.80;89.00
26537;DHT22;14204;51.262;5.488;2022-07-24T13:14:32;31.80;88.80
26537;DHT22;14204;51.262;5.488;2022-07-24T13:17:05;32.00;89.70
26537;DHT22;14204;51.262;5.488;2022-07-24T13:19:39;31.80;89.30
26537;DHT22;14204;51.262;5.488;2022-07-24T13:22:07;32.00;91.50
26537;DHT22;14204;51.262;5.488;2022-07-24T13:24:35;32.30;90.50
26537;DHT22;14204;51.262;5.488;2022-07-24T13:27:04;32.20;89.30
26537;DHT22;14204;51.262;5.488;2022-07-24T13:29:31;32.20;90.20
26537;DHT22;14204;51.262;5.488;2022-07-24T13:31:56;32.30;89.60
26537;DHT22;14204;51.262;5.488;2022-07-24T13:34:23;32.10;90.10
26537;DHT22;14204;51.262;5.488;2022-07-24T13:36:49;32.10;90.00
26537;DHT22;14204;51.262;5.488;2022-07-24T13:39:15;32.50;90.90
26537;DHT22;14204;51.262;5.488;2022-07-24T13:41:44;32.70;88.60
26537;DHT22;14204;51.262;5.488;2022-07-24T13:44:11;32.80;89.90
26537;DHT22;14204;51.262;5.488;2022-07-24T13:46:37;32.80;86.90
26537;DHT22;14204;51.262;5.488;2022-07-24T13:49:05;32.90;88.70
26537;DHT22;14204;51.262;5.488;2022-07-24T13:51:33;32.90;85.80
26537;DHT22;14204;51.262;5.488;2022-07-24T13:54:01;32.90;90.20
26537;DHT22;14204;51.262;5.488;2022-07-24T13:56:30;32.90;89.20
26537;DHT22;14204;51.262;5.488;2022-07-24T13:58:58;32.70;89.00
26537;DHT22;14204;51.262;5.488;2022-07-24T14:01:24;32.50;89.70
26537;DHT22;14204;51.262;5.488;2022-07-24T14:03:51;32.50;88.70
26537;DHT22;14204;51.262;5.488;2022-07-24T14:06:17;32.50;89.00
26537;DHT22;14204;51.262;5.488;2022-07-24T14:08:43;32.60;90.40
26537;DHT22;14204;51.262;5.488;2022-07-24T14:11:09;32.60;87.80
26537;DHT22;14204;51.262;5.488;2022-07-24T14:13:35;32.60;88.20
26537;DHT22;14204;51.262;5.488;2022-07-24T14:16:02;32.60;88.60
26537;DHT22;14204;51.262;5.488;2022-07-24T14:18:28;32.60;90.30
26537;DHT22;14204;51.262;5.488;2022-07-24T14:20:54;32.50;89.30
26537;DHT22;14204;51.262;5.488;2022-07-24T14:23:20;32.60;88.70
26537;DHT22;14204;51.262;5.488;2022-07-24T14:25:47;32.60;89.30
26537;DHT22;14204;51.262;5.488;2022-07-24T14:28:14;32.80;90.70
26537;DHT22;14204;51.262;5.488;2022-07-24T14:30:40;32.80;87.20
26537;DHT22;14204;51.262;5.488;2022-07-24T14:33:06;33.00;87.40
26537;DHT22;14204;51.262;5.488;2022-07-24T14:35:34;32.60;86.40
26537;DHT22;14204;51.262;5.488;2022-07-24T14:38:00;32.80;89.10
26537;DHT22;14204;51.262;5.488;2022-07-24T14:40:26;32.80;88.20
26537;DHT22;14204;51.262;5.488;2022-07-24T14:42:52;32.70;87.40
26537;DHT22;14204;51.262;5.488;2022-07-24T14:45:19;32.60;89.90
26537;DHT22;14204;51.262;5.488;2022-07-24T14:47:45;32.60;89.20
26537;DHT22;14204;51.262;5.488;2022-07-24T14:50:11;32.60;87.50
26537;DHT22;14204;51.262;5.488;2022-07-24T14:52:37;32.60;90.10
26537;DHT22;14204;51.262;5.488;2022-07-24T14:55:08;32.70;87.80
26537;DHT22;14204;51.262;5.488;2022-07-24T14:57:34;32.70;89.00
26537;DHT22;14204;51.262;5.488;2022-07-24T15:00:03;32.80;88.70
26537;DHT22;14204;51.262;5.488;2022-07-24T15:02:35;32.80;89.70
26537;DHT22;14204;51.262;5.488;2022-07-24T15:05:04;32.90;88.00
26537;DHT22;14204;51.262;5.488;2022-07-24T15:07:31;32.90;86.00
26537;DHT22;14204;51.262;5.488;2022-07-24T15:09:56;33.00;87.60
26537;DHT22;14204;51.262;5.488;2022-07-24T15:12:27;32.80;86.50
26537;DHT22;14204;51.262;5.488;2022-07-24T15:14:52;32.80;88.20
26537;DHT22;14204;51.262;5.488;2022-07-24T15:17:20;32.80;86.00
26537;DHT22;14204;51.262;5.488;2022-07-24T15:19:45;32.70;87.90
26537;DHT22;14204;51.262;5.488;2022-07-24T15:22:11;32.80;90.40
26537;DHT22;14204;51.262;5.488;2022-07-24T15:24:38;32.90;89.90
26537;DHT22;14204;51.262;5.488;2022-07-24T15:27:04;32.50;88.30
26537;DHT22;14204;51.262;5.488;2022-07-24T15:29:31;32.50;88.80
26537;DHT22;14204;51.262;5.488;2022-07-24T15:31:58;32.60;88.00
26537;DHT22;14204;51.262;5.488;2022-07-24T15:34:24;32.50;88.60
26537;DHT22;14204;51.262;5.488;2022-07-24T15:36:50;32.50;91.10
26537;DHT22;14204;51.262;5.488;2022-07-24T15:39:16;32.30;87.50
26537;DHT22;14204;51.262;5.488;2022-07-24T15:41:44;32.30;87.20
26537;DHT22;14204;51.262;5.488;2022-07-24T15:44:10;32.30;88.50
26537;DHT22;14204;51.262;5.488;2022-07-24T15:46:36;32.30;88.80
26537;DHT22;14204;51.262;5.488;2022-07-24T15:49:05;32.40;89.50
26537;DHT22;14204;51.262;5.488;2022-07-24T15:51:33;32.50;90.20
26537;DHT22;14204;51.262;5.488;2022-07-24T15:54:00;32.20;88.90
26537;DHT22;14204;51.262;5.488;2022-07-24T15:56:26;31.90;87.30
26537;DHT22;14204;51.262;5.488;2022-07-24T15:58:56;32.00;90.00
26537;DHT22;14204;51.262;5.488;2022-07-24T16:01:22;32.10;90.30
26537;DHT22;14204;51.262;5.488;2022-07-24T16:03:48;32.00;88.80
26537;DHT22;14204;51.262;5.488;2022-07-24T16:06:14;31.90;92.20
26537;DHT22;14204;51.262;5.488;2022-07-24T16:08:39;31.90;90.50